sensor_id;sensor_type;location;lat;lon;timestamp;temperature;humidity
54922;DHT22;40824;45.116;21.296;2023-04-21T07:31:05;922.30;281.60
54922;DHT22;40824;45.116;21.296;2023-04-21T07:33:31;922.40;281.60
54922;DHT22;40824;45.116;21.296;2023-04-21T07:35:57;947.30;281.60
54922;DHT22;40824;45.116;21.296;2023-04-21T07:38:23;948.00;281.60
54922;DHT22;40824;45.116;21.296;2023-04-21T07:40:49;947.70;281.60
54922;DHT22;40824;45.116;21.296;2023-04-21T07:43:15;948.00;281.60
54922;DHT22;40824;45.116;21.296;2023-04-21T07:45:41;948.10;281.60
54922;DHT22;40824;45.116;21.296;2023-04-21T07:48:07;972.80;307.20
54922;DHT22;40824;45.116;21.296;2023-04-21T07:53:02;973.50;307.20
54922;DHT22;40824;45.116;21.296;2023-04-21T07:55:28;973.20;307.20
54922;DHT22;40824;45.116;21.296;2023-04-21T08:02:46;999.30;332.80
54922;DHT22;40824;45.116;21.296;2023-04-21T08:05:12;998.70;332.80
54922;DHT22;40824;45.116;21.296;2023-04-21T08:07:38;998.80;332.80
54922;DHT22;40824;45.116;21.296;2023-04-21T08:10:05;999.10;332.80
54922;DHT22;40824;45.116;21.296;2023-04-21T08:12:31;973.40;307.20
54922;DHT22;40824;45.116;21.296;2023-04-21T08:14:56;998.90;332.80
54922;DHT22;40824;45.116;21.296;2023-04-21T08:17:22;1024.00;332.80
54922;DHT22;40824;45.116;21.296;2023-04-21T08:19:48;998.90;332.80
54922;DHT22;40824;45.116;21.296;2023-04-21T08:22:14;973.60;307.20
54922;DHT22;40824;45.116;21.296;2023-04-21T08:24:39;998.40;332.80
54922;DHT22;40824;45.116;21.296;2023-04-21T08:27:05;999.30;332.80
54922;DHT22;40824;45.116;21.296;2023-04-21T08:29:31;1024.40;332.80
54922;DHT22;40824;45.116;21.296;2023-04-21T09:43:05;1177.90;409.60
54922;DHT22;40824;45.116;21.296;2023-04-21T09:57:51;1203.70;435.20
54922;DHT22;40824;45.116;21.296;2023-04-21T10:00:25;1204.00;435.20
54922;DHT22;40824;45.116;21.296;2023-04-21T10:02:53;1203.90;435.20
54922;DHT22;40824;45.116;21.296;2023-04-21T10:05:20;1203.90;435.20
54922;DHT22;40824;45.116;21.296;2023-04-21T10:07:47;1203.80;435.20
54922;DHT22;40824;45.116;21.296;2023-04-21T10:10:27;1178.20;409.60
54922;DHT22;40824;45.116;21.296;2023-04-21T10:12:54;1203.50;435.20
54922;DHT22;40824;45.116;21.296;2023-04-21T10:15:30;1203.80;435.20
54922;DHT22;40824;45.116;21.296;2023-04-21T10:23:41;1203.80;435.20
54922;DHT22;40824;45.116;21.296;2023-04-21T10:26:13;1203.80;435.20
54922;DHT22;40824;45.116;21.296;2023-04-21T10:31:30;1254.40;486.40
54922;DHT22;40824;45.116;21.296;2023-04-21T10:36:47;1229.10;460.80
54922;DHT22;40824;45.116;21.296;2023-04-21T10:49:27;1203.30;435.20
54922;DHT22;40824;45.116;21.296;2023-04-21T11:33:38;1101.70;384.00
54922;DHT22;40824;45.116;21.296;2023-04-21T12:03:33;793.60;230.40
54922;DHT22;40824;45.116;21.296;2023-04-21T12:05:59;768.30;204.80
54922;DHT22;40824;45.116;21.296;2023-04-21T12:08:29;768.00;204.80
54922;DHT22;40824;45.116;21.296;2023-04-21T12:13:24;743.00;204.80
54922;DHT22;40824;45.116;21.296;2023-04-21T12:28:13;717.10;179.20
54922;DHT22;40824;45.116;21.296;2023-04-21T12:33:07;691.40;153.60
54922;DHT22;40824;45.116;21.296;2023-04-21T12:35:32;691.20;153.60
54922;DHT22;40824;45.116;21.296;2023-04-21T12:37:58;666.30;153.60
54922;DHT22;40824;45.116;21.296;2023-04-21T12:40:24;666.30;153.60
54922;DHT22;40824;45.116;21.296;2023-04-21T12:42:50;666.00;153.60
54922;DHT22;40824;45.116;21.296;2023-04-21T14:13:08;614.40;128.00
54922;DHT22;40824;45.116;21.296;2023-04-21T14:15:34;589.70;128.00
54922;DHT22;40824;45.116;21.296;2023-04-21T14:20:26;589.20;128.00
54922;DHT22;40824;45.116;21.296;2023-04-21T14:22:52;589.10;128.00
54922;DHT22;40824;45.116;21.296;2023-04-21T14:25:17;589.00;128.00
54922;DHT22;40824;45.116;21.296;2023-04-21T14:27:43;588.80;128.00
54922;DHT22;40824;45.116;21.296;2023-04-21T14:30:09;564.10;128.00
54922;DHT22;40824;45.116;21.296;2023-04-21T14:32:35;563.90;128.00
54922;DHT22;40824;45.116;21.296;2023-04-21T14:35:01;563.80;128.00
54922;DHT22;40824;45.116;21.296;2023-04-21T14:52:04;563.80;128.00
54922;DHT22;40824;45.116;21.296;2023-04-21T14:54:31;563.50;128.00
54922;DHT22;40824;45.116;21.296;2023-04-21T14:59:25;563.20;128.00
54922;DHT22;40824;45.116;21.296;2023-04-21T15:01:50;538.50;128.00
54922;DHT22;40824;45.116;21.296;2023-04-21T15:04:16;538.50;128.00
54922;DHT22;40824;45.116;21.296;2023-04-21T15:06:42;538.40;128.00
54922;DHT22;40824;45.116;21.296;2023-04-21T15:09:07;538.30;128.00
54922;DHT22;40824;45.116;21.296;2023-04-21T15:11:33;538.20;128.00
54922;DHT22;40824;45.116;21.296;2023-04-21T15:13:59;538.30;128.00
54922;DHT22;40824;45.116;21.296;2023-04-21T15:16:24;538.00;128.00
54922;DHT22;40824;45.116;21.296;2023-04-21T15:18:50;537.90;128.00
54922;DHT22;40824;45.116;21.296;2023-04-21T15:21:18;537.90;128.00
54922;DHT22;40824;45.116;21.296;2023-04-21T15:23:44;537.90;128.00
54922;DHT22;40824;45.116;21.296;2023-04-21T15:26:09;537.70;128.00
54922;DHT22;40824;45.116;21.296;2023-04-21T15:28:35;537.70;128.00
54922;DHT22;40824;45.116;21.296;2023-04-21T15:31:01;512.90;128.00
54922;DHT22;40824;45.116;21.296;2023-04-21T15:35:54;512.80;128.00
54922;DHT22;40824;45.116;21.296;2023-04-21T15:38:20;512.70;128.00
54922;DHT22;40824;45.116;21.296;2023-04-21T15:40:45;512.60;128.00
54922;DHT22;40824;45.116;21.296;2023-04-21T15:43:12;512.80;128.00
54922;DHT22;40824;45.116;21.296;2023-04-21T15:45:37;537.60;128.00
54922;DHT22;40824;45.116;21.296;2023-04-21T15:48:03;512.80;128.00
54922;DHT22;40824;45.116;21.296;2023-04-21T15:50:29;512.60;128.00
54922;DHT22;40824;45.116;21.296;2023-04-21T15:52:56;512.40;128.00
54922;DHT22;40824;45.116;21.296;2023-04-21T15:55:21;512.20;128.00
54922;DHT22;40824;45.116;21.296;2023-04-21T15:57:47;512.20;128.00
54922;DHT22;40824;45.116;21.296;2023-04-21T16:17:17;486.90;128.00
54922;DHT22;40824;45.116;21.296;2023-04-21T16:19:43;486.80;128.00
54922;DHT22;40824;45.116;21.296;2023-04-21T16:22:10;486.70;128.00
54922;DHT22;40824;45.116;21.296;2023-04-21T16:24:36;486.60;128.00
54922;DHT22;40824;45.116;21.296;2023-04-21T16:27:02;486.50;128.00
54922;DHT22;40824;45.116;21.296;2023-04-21T16:29:28;486.50;128.00
54922;DHT22;40824;45.116;21.296;2023-04-21T16:31:53;486.40;128.00
54922;DHT22;40824;45.116;21.296;2023-04-21T16:34:19;486.40;128.00
54922;DHT22;40824;45.116;21.296;2023-04-21T16:39:11;461.60;128.00
54922;DHT22;40824;45.116;21.296;2023-04-21T16:41:36;461.50;128.00
54922;DHT22;40824;45.116;21.296;2023-04-21T16:44:02;461.40;128.00
54922;DHT22;40824;45.116;21.296;2023-04-21T16:46:28;461.30;128.00
54922;DHT22;40824;45.116;21.296;2023-04-21T16:48:53;461.40;128.00
54922;DHT22;40824;45.116;21.296;2023-04-21T16:58:39;461.10;128.00
